Time;durP1;ratioP1;P1;durP2;ratioP2;P2;SDS_P1;SDS_P2;PMS_P1;PMS_P2;Temp;Humidity;BMP_temperature;BMP_pressure;BME280_temperature;BME280_humidity;BME280_pressure;Samples;Min_cycle;Max_cycle;Signal;HPM_P1;HPM_P2
2021/09/22 00:01:49;;;;;;;15.60;9.65;;;21.30;53.90;;;;;;6232250;28;81259;-63
2021/09/22 00:04:50;;;;;;;14.13;9.30;;;21.30;53.90;;;;;;6233636;28;80571;-63
2021/09/22 00:07:50;;;;;;;13.43;8.82;;;21.30;53.90;;;;;;6233363;28;80275;-63
2021/09/22 00:10:51;;;;;;;15.85;9.32;;;21.30;53.90;;;;;;6233925;27;81857;-63
2021/09/22 00:13:51;;;;;;;14.23;8.70;;;21.30;53.90;;;;;;6234355;28;80421;-63
2021/09/22 00:16:55;;;;;;;14.70;8.85;;;21.30;53.70;;;;;;6232523;27;80915;-63
2021/09/22 00:19:55;;;;;;;13.57;9.05;;;21.30;53.70;;;;;;6224109;27;81315;-62
2021/09/22 00:22:58;;;;;;;16.00;9.55;;;21.30;53.80;;;;;;6229523;27;80592;-63
2021/09/22 00:25:58;;;;;;;13.30;9.07;;;21.30;53.80;;;;;;6231996;28;80685;-64
2021/09/22 00:28:59;;;;;;;16.55;10.18;;;21.20;53.90;;;;;;6232254;28;81614;-64
2021/09/22 00:32:00;;;;;;;15.77;9.82;;;21.30;53.70;;;;;;6228010;28;83140;-64
2021/09/22 00:35:00;;;;;;;14.32;9.13;;;21.20;53.70;;;;;;6231802;28;83977;-63
2021/09/22 00:38:01;;;;;;;13.93;9.50;;;21.20;53.80;;;;;;6230548;27;83137;-63
2021/09/22 00:41:02;;;;;;;13.25;8.98;;;21.20;53.80;;;;;;6227888;27;80474;-63
2021/09/22 00:44:02;;;;;;;14.23;9.45;;;21.20;53.80;;;;;;6223158;27;81564;-63
2021/09/22 00:47:03;;;;;;;14.82;9.55;;;21.20;53.90;;;;;;6226268;28;80923;-63
2021/09/22 00:50:03;;;;;;;16.83;9.48;;;21.30;53.80;;;;;;6226198;28;83106;-63
2021/09/22 00:53:04;;;;;;;13.68;8.93;;;21.20;53.80;;;;;;6232240;27;80750;-63
2021/09/22 00:56:04;;;;;;;14.07;8.77;;;21.20;53.80;;;;;;6219198;27;80486;-63
2021/09/22 00:59:05;;;;;;;16.75;9.57;;;21.20;53.70;;;;;;6230364;28;83549;-63
2021/09/22 01:02:05;;;;;;;13.75;8.82;;;21.20;53.80;;;;;;6227471;28;81285;-63
2021/09/22 01:05:06;;;;;;;13.98;9.13;;;21.20;53.80;;;;;;6226966;28;83268;-64
2021/09/22 01:08:09;;;;;;;15.35;9.75;;;21.20;53.70;;;;;;6230335;27;80467;-62
2021/09/22 01:11:10;;;;;;;17.73;8.15;;;21.20;53.70;;;;;;6217914;28;81680;-63
2021/09/22 01:14:12;;;;;;;13.70;9.20;;;21.20;53.70;;;;;;6216083;28;80734;-63
2021/09/22 01:17:12;;;;;;;12.98;8.73;;;21.20;53.60;;;;;;6232411;27;80977;-63
2021/09/22 01:20:13;;;;;;;12.75;8.80;;;21.20;53.70;;;;;;6231135;28;81850;-63
2021/09/22 01:23:15;;;;;;;13.93;9.32;;;21.20;53.60;;;;;;6231964;28;83186;-63
2021/09/22 01:26:16;;;;;;;14.27;8.63;;;21.20;53.60;;;;;;6230058;28;85682;-64
2021/09/22 01:29:17;;;;;;;13.13;8.98;;;21.20;53.60;;;;;;6228955;28;83135;-63
2021/09/22 01:32:22;;;;;;;13.55;8.07;;;21.20;53.60;;;;;;6225278;28;81572;-63
2021/09/22 01:35:27;;;;;;;14.55;8.35;;;21.20;53.60;;;;;;6229433;28;82613;-64
2021/09/22 01:38:34;;;;;;;17.50;9.60;;;21.20;53.60;;;;;;6228786;28;81462;-63
2021/09/22 01:41:46;;;;;;;11.80;7.78;;;21.20;53.50;;;;;;6230225;28;81875;-63
2021/09/22 01:44:47;;;;;;;14.07;8.55;;;21.20;53.40;;;;;;6213153;28;83283;-63
2021/09/22 01:48:09;;;;;;;11.45;7.78;;;21.20;53.50;;;;;;6234603;28;81712;-63
2021/09/22 01:51:11;;;;;;;12.07;7.85;;;21.20;53.30;;;;;;6194351;28;80631;-63
2021/09/22 01:54:27;;;;;;;11.25;7.68;;;21.20;53.50;;;;;;6229975;27;85901;-63
2021/09/22 01:57:29;;;;;;;12.95;7.82;;;21.20;53.50;;;;;;6228863;28;82627;-63
2021/09/22 02:00:30;;;;;;;12.50;7.40;;;21.10;53.40;;;;;;6222760;27;83219;-63
2021/09/22 02:03:30;;;;;;;11.25;7.63;;;21.10;53.40;;;;;;6228399;27;83333;-63
2021/09/22 02:06:37;;;;;;;12.73;7.78;;;21.10;53.50;;;;;;6202427;28;83166;-64
2021/09/22 02:09:38;;;;;;;10.85;7.85;;;21.10;53.50;;;;;;6201464;28;83195;-64
2021/09/22 02:12:40;;;;;;;12.15;7.38;;;21.10;53.50;;;;;;6195627;28;81741;-64
2021/09/22 02:15:41;;;;;;;10.15;6.82;;;21.10;53.60;;;;;;6222506;28;82742;-64
2021/09/22 02:19:00;;;;;;;11.13;7.03;;;21.10;53.60;;;;;;6227713;28;80509;-64
2021/09/22 02:22:02;;;;;;;13.90;6.88;;;21.20;53.70;;;;;;6216148;28;83210;-64
2021/09/22 02:25:11;;;;;;;9.70;6.78;;;21.10;53.60;;;;;;6220700;28;82732;-63
2021/09/22 02:28:13;;;;;;;8.52;5.97;;;21.10;53.70;;;;;;6227679;28;82838;-63
2021/09/22 02:31:18;;;;;;;9.93;5.65;;;21.10;53.70;;;;;;6231718;28;82529;-63
2021/09/22 02:34:38;;;;;;;8.40;5.47;;;21.10;53.60;;;;;;6216269;28;83391;-63
2021/09/22 02:37:39;;;;;;;8.23;5.15;;;21.10;53.60;;;;;;6228075;28;82815;-63
2021/09/22 02:40:59;;;;;;;7.70;5.22;;;21.10;53.50;;;;;;6205124;28;82684;-63
2021/09/22 02:44:00;;;;;;;9.90;5.32;;;21.10;53.50;;;;;;6213604;28;81091;-63
2021/09/22 02:47:10;;;;;;;8.80;5.28;;;21.10;53.60;;;;;;6196684;28;81538;-63
2021/09/22 02:50:12;;;;;;;8.35;5.53;;;21.10;53.40;;;;;;6237785;28;81817;-63
2021/09/22 02:53:13;;;;;;;6.10;4.60;;;21.10;53.50;;;;;;6203576;28;83390;-63
2021/09/22 02:56:14;;;;;;;8.43;5.45;;;21.10;53.40;;;;;;6203381;28;82666;-63
2021/09/22 02:59:15;;;;;;;8.68;5.00;;;21.10;53.30;;;;;;6204895;28;82454;-63
2021/09/22 03:02:20;;;;;;;6.47;4.65;;;21.10;53.30;;;;;;6204817;28;83441;-63
2021/09/22 03:05:21;;;;;;;6.88;4.60;;;21.10;53.10;;;;;;6233654;27;83800;-63
2021/09/22 03:08:21;;;;;;;8.07;3.85;;;21.10;53.10;;;;;;6200661;28;81805;-63
2021/09/22 03:11:22;;;;;;;5.72;3.50;;;21.10;53.00;;;;;;6204229;28;82815;-63
2021/09/22 03:14:23;;;;;;;5.40;4.20;;;21.10;52.90;;;;;;6197594;28;83432;-63
2021/09/22 03:17:26;;;;;;;5.70;3.80;;;21.10;52.90;;;;;;6208292;28;81880;-63
2021/09/22 03:20:26;;;;;;;5.50;3.50;;;21.10;52.80;;;;;;6207953;27;82058;-63
2021/09/22 03:23:27;;;;;;;7.13;4.88;;;21.10;52.80;;;;;;6223021;28;83253;-63
2021/09/22 03:26:30;;;;;;;7.18;4.30;;;21.10;52.70;;;;;;6210456;27;81668;-63
2021/09/22 03:29:30;;;;;;;5.80;4.35;;;21.10;52.70;;;;;;6221817;28;83193;-63
2021/09/22 03:32:31;;;;;;;5.80;4.15;;;21.10;52.70;;;;;;6207749;28;83251;-63
2021/09/22 03:35:31;;;;;;;6.43;4.13;;;21.00;52.70;;;;;;6234547;27;83186;-63
2021/09/22 03:38:33;;;;;;;6.80;3.55;;;21.10;52.70;;;;;;6204122;28;82917;-63
2021/09/22 03:41:34;;;;;;;5.72;3.80;;;21.10;52.70;;;;;;6227010;28;81461;-63
2021/09/22 03:44:35;;;;;;;4.85;3.50;;;21.10;52.60;;;;;;6219804;28;80986;-63
2021/09/22 03:47:36;;;;;;;5.68;4.03;;;21.10;52.60;;;;;;6224005;28;82227;-66
2021/09/22 03:50:36;;;;;;;4.15;3.13;;;21.00;52.90;;;;;;6227660;28;83323;-65
2021/09/22 03:53:37;;;;;;;5.22;3.63;;;21.10;53.10;;;;;;6233152;27;80615;-65
2021/09/22 03:56:37;;;;;;;4.68;3.42;;;21.10;53.30;;;;;;6233616;27;80505;-63
2021/09/22 03:59:39;;;;;;;5.30;3.30;;;21.10;53.70;;;;;;6207504;28;81550;-63
2021/09/22 04:02:39;;;;;;;6.65;3.50;;;21.10;53.70;;;;;;6231199;28;83651;-64
2021/09/22 04:05:40;;;;;;;5.80;4.28;;;21.10;53.80;;;;;;6226469;28;82690;-64
2021/09/22 04:08:41;;;;;;;6.15;3.80;;;21.20;54.10;;;;;;6215545;28;82978;-64
2021/09/22 04:11:42;;;;;;;6.07;3.72;;;21.30;54.50;;;;;;6230990;28;83308;-63
2021/09/22 04:14:43;;;;;;;5.10;3.65;;;21.30;54.30;;;;;;6232514;28;81291;-64
2021/09/22 04:17:44;;;;;;;4.80;3.30;;;21.30;54.10;;;;;;6231743;28;83206;-63
2021/09/22 04:20:44;;;;;;;8.90;3.97;;;21.30;54.10;;;;;;6232801;28;80730;-64
2021/09/22 04:23:46;;;;;;;5.57;3.72;;;21.30;54.10;;;;;;6230378;28;83381;-66
2021/09/22 04:26:46;;;;;;;6.18;3.90;;;21.30;54.30;;;;;;6227587;28;83184;-63
2021/09/22 04:29:58;;;;;;;4.45;3.22;;;21.30;54.30;;;;;;6231004;28;83049;-64
2021/09/22 04:33:17;;;;;;;6.68;3.85;;;21.30;54.50;;;;;;6231352;27;83568;-63
2021/09/22 04:36:36;;;;;;;7.78;3.95;;;21.30;54.50;;;;;;6224196;28;80367;-63
2021/09/22 04:39:55;;;;;;;5.60;3.63;;;21.40;54.70;;;;;;6231272;28;80439;-63
2021/09/22 04:43:15;;;;;;;5.80;3.90;;;21.40;54.70;;;;;;6230211;28;85791;-64
2021/09/22 04:46:34;;;;;;;4.45;3.20;;;21.40;54.80;;;;;;6224022;27;80224;-63
2021/09/22 04:49:52;;;;;;;4.68;3.22;;;21.50;54.80;;;;;;6231971;27;80522;-63
2021/09/22 04:53:11;;;;;;;4.78;3.33;;;21.50;54.60;;;;;;6229221;28;80175;-63
2021/09/22 04:56:30;;;;;;;4.88;3.60;;;21.50;54.40;;;;;;6230419;27;80639;-63
2021/09/22 04:59:49;;;;;;;4.15;3.30;;;21.50;54.80;;;;;;6229955;27;80116;-65
2021/09/22 05:03:08;;;;;;;4.47;3.55;;;21.50;55.40;;;;;;6231117;27;80723;-63
2021/09/22 05:06:27;;;;;;;5.00;3.72;;;21.50;55.30;;;;;;6201961;28;85185;-63
2021/09/22 05:09:47;;;;;;;6.68;3.70;;;21.50;55.70;;;;;;6229982;28;80854;-63
2021/09/22 05:13:07;;;;;;;5.13;3.20;;;21.50;56.10;;;;;;6231939;28;80385;-63
2021/09/22 05:16:27;;;;;;;6.15;3.20;;;21.50;56.30;;;;;;6229799;27;81473;-64
2021/09/22 05:19:46;;;;;;;4.57;3.08;;;21.50;55.90;;;;;;6217197;28;80683;-65
2021/09/22 05:23:05;;;;;;;4.30;3.35;;;21.40;56.00;;;;;;6232135;27;80445;-62
2021/09/22 05:26:34;;;;;;;6.72;3.38;;;21.50;56.30;;;;;;6223028;28;80403;-62
2021/09/22 05:29:54;;;;;;;12.18;3.60;;;21.50;55.50;;;;;;6219131;28;80155;-63
2021/09/22 05:33:13;;;;;;;6.97;3.03;;;21.50;55.70;;;;;;6220265;28;80626;-60
2021/09/22 05:36:32;;;;;;;5.00;3.30;;;21.50;55.90;;;;;;6208978;28;84780;-64
2021/09/22 05:39:51;;;;;;;6.78;3.28;;;21.50;56.40;;;;;;6213273;28;81105;-64
2021/09/22 05:43:10;;;;;;;9.93;4.00;;;21.50;56.20;;;;;;6230375;27;81019;-61
2021/09/22 05:46:29;;;;;;;5.32;3.38;;;21.50;56.70;;;;;;6228567;27;80109;-61
2021/09/22 05:49:48;;;;;;;6.97;3.30;;;21.50;56.70;;;;;;6229088;27;80582;-61
2021/09/22 05:53:07;;;;;;;11.57;3.55;;;21.40;57.00;;;;;;6230502;28;80723;-61
2021/09/22 05:56:26;;;;;;;6.03;3.50;;;21.40;56.70;;;;;;6227297;27;80268;-62
2021/09/22 05:59:45;;;;;;;4.28;3.15;;;21.40;56.80;;;;;;6229930;27;81394;-63
2021/09/22 06:03:04;;;;;;;3.85;2.92;;;21.40;56.40;;;;;;6222563;28;80727;-62
2021/09/22 06:06:28;;;;;;;13.13;3.25;;;21.40;56.80;;;;;;6224924;28;85890;-62
2021/09/22 06:09:57;;;;;;;5.97;3.75;;;21.40;56.10;;;;;;6220211;27;80807;-62
2021/09/22 06:13:17;;;;;;;9.65;3.50;;;21.30;55.40;;;;;;6221524;27;81432;-61
2021/09/22 06:16:18;;;;;;;6.32;4.03;;;21.30;54.40;;;;;;6225362;28;82855;-62
2021/09/22 06:19:19;;;;;;;5.72;4.03;;;21.20;53.60;;;;;;6219818;28;80940;-61
2021/09/22 06:22:24;;;;;;;5.55;3.65;;;21.20;53.30;;;;;;6224929;27;81212;-61
2021/09/22 06:25:25;;;;;;;8.73;4.57;;;21.10;52.90;;;;;;6220166;28;83368;-61
2021/09/22 06:28:25;;;;;;;6.68;4.00;;;21.10;52.70;;;;;;6218682;28;80841;-61
2021/09/22 06:31:26;;;;;;;6.18;3.95;;;21.10;52.70;;;;;;6229383;27;81317;-61
2021/09/22 06:34:42;;;;;;;6.25;4.50;;;21.10;52.50;;;;;;6228077;28;81279;-61
2021/09/22 06:37:50;;;;;;;4.82;3.70;;;21.10;52.40;;;;;;6227771;28;81759;-61
2021/09/22 06:40:53;;;;;;;6.80;4.07;;;21.00;52.40;;;;;;6230313;28;82242;-61
2021/09/22 06:43:53;;;;;;;5.28;3.92;;;21.00;52.30;;;;;;6226738;28;83142;-61
2021/09/22 06:46:54;;;;;;;6.03;3.78;;;21.00;52.10;;;;;;6225334;27;80774;-61
2021/09/22 06:49:55;;;;;;;6.90;3.97;;;21.00;52.10;;;;;;6234867;27;80168;-63
2021/09/22 06:52:55;;;;;;;5.38;4.32;;;21.00;52.20;;;;;;6223827;28;80617;-61
2021/09/22 06:55:56;;;;;;;7.13;4.38;;;20.90;52.00;;;;;;6232296;27;80459;-61
2021/09/22 06:58:56;;;;;;;6.32;4.20;;;20.90;51.90;;;;;;6211596;28;82760;-61
2021/09/22 07:01:57;;;;;;;6.25;4.10;;;20.90;51.90;;;;;;6236492;27;81485;-61
2021/09/22 07:04:57;;;;;;;5.70;3.85;;;20.90;51.90;;;;;;6231429;28;84106;-61
2021/09/22 07:07:58;;;;;;;7.00;4.63;;;20.90;52.00;;;;;;6229334;28;82050;-61
2021/09/22 07:10:58;;;;;;;7.63;4.55;;;20.90;51.90;;;;;;6232343;27;81763;-61
2021/09/22 07:13:59;;;;;;;11.13;5.28;;;20.90;51.80;;;;;;6233700;27;80308;-61
2021/09/22 07:17:00;;;;;;;8.40;4.60;;;20.90;51.90;;;;;;6234608;27;80310;-61
2021/09/22 07:20:01;;;;;;;8.77;5.05;;;20.90;51.90;;;;;;6232295;28;80435;-61
2021/09/22 07:23:02;;;;;;;6.20;4.53;;;20.90;51.90;;;;;;6233417;27;80566;-61
2021/09/22 07:26:03;;;;;;;7.22;5.03;;;20.80;51.80;;;;;;6238183;28;80490;-60
2021/09/22 07:29:04;;;;;;;6.63;4.32;;;20.80;51.90;;;;;;6231047;28;80357;-62
2021/09/22 07:32:04;;;;;;;6.53;4.35;;;20.80;51.90;;;;;;6236519;28;80562;-61
2021/09/22 07:35:05;;;;;;;9.50;5.22;;;20.80;52.00;;;;;;6222991;28;80607;-60
2021/09/22 07:38:09;;;;;;;10.50;6.22;;;20.80;52.20;;;;;;6222520;27;81527;-61
2021/09/22 07:41:09;;;;;;;9.23;5.78;;;20.80;51.90;;;;;;6207164;27;82073;-61
2021/09/22 07:44:10;;;;;;;7.10;5.05;;;20.80;51.90;;;;;;6187708;28;81820;-61
2021/09/22 07:47:10;;;;;;;8.82;5.28;;;20.80;51.80;;;;;;6208395;28;81253;-61
2021/09/22 07:50:12;;;;;;;9.45;5.22;;;20.80;51.80;;;;;;6216296;28;81517;-61
2021/09/22 07:53:12;;;;;;;7.80;5.30;;;20.80;51.90;;;;;;6221401;27;81442;-61
2021/09/22 07:56:13;;;;;;;8.43;5.03;;;20.80;52.20;;;;;;6227726;28;81027;-61
2021/09/22 07:59:13;;;;;;;7.15;4.75;;;20.80;52.00;;;;;;6231717;27;80745;-62
2021/09/22 08:02:14;;;;;;;7.00;4.28;;;20.70;52.70;;;;;;6227942;27;80508;-61
2021/09/22 08:05:14;;;;;;;5.80;4.07;;;20.70;51.90;;;;;;6234911;28;81075;-61
2021/09/22 08:08:15;;;;;;;5.13;3.97;;;20.70;51.90;;;;;;6230281;27;80702;-61
2021/09/22 08:11:15;;;;;;;5.60;3.78;;;20.70;51.80;;;;;;6231443;27;82853;-61
2021/09/22 08:14:16;;;;;;;6.30;4.10;;;20.70;52.00;;;;;;6232559;27;81602;-61
2021/09/22 08:17:18;;;;;;;9.75;4.30;;;20.70;52.10;;;;;;6231840;27;81372;-61
2021/09/22 08:20:18;;;;;;;7.88;4.13;;;20.70;52.10;;;;;;6228935;28;81233;-61
2021/09/22 08:23:20;;;;;;;10.15;4.57;;;20.70;52.00;;;;;;6231599;27;80412;-61
2021/09/22 08:26:20;;;;;;;6.93;4.55;;;20.70;52.50;;;;;;6231412;28;81692;-61
2021/09/22 08:29:21;;;;;;;6.15;4.07;;;20.70;52.10;;;;;;6228449;27;80549;-61
2021/09/22 09:32:12;;;;;;;8.73;4.70;;;20.70;52.30;;;;;;6222358;27;83183;-61
2021/09/22 09:35:12;;;;;;;7.63;4.60;;;20.70;52.30;;;;;;6231776;27;80705;-62
2021/09/22 09:38:13;;;;;;;10.13;5.35;;;20.70;52.50;;;;;;6231979;28;80912;-62
2021/09/22 09:41:13;;;;;;;11.30;4.20;;;20.70;52.70;;;;;;6219400;27;80973;-62
2021/09/22 09:44:15;;;;;;;5.90;4.13;;;20.70;52.50;;;;;;6230520;27;80045;-62
2021/09/22 09:47:15;;;;;;;7.38;5.03;;;20.70;52.80;;;;;;6231823;27;80369;-62
2021/09/22 09:50:16;;;;;;;9.43;5.70;;;20.70;52.50;;;;;;6228139;27;80460;-62
2021/09/22 09:53:16;;;;;;;6.28;4.75;;;20.70;52.80;;;;;;6230303;27;81496;-62
2021/09/22 09:56:17;;;;;;;8.45;4.75;;;20.70;52.70;;;;;;6231451;27;80477;-62
2021/09/22 09:59:18;;;;;;;6.93;4.50;;;20.70;52.60;;;;;;6229095;27;80221;-62
2021/09/22 10:02:18;;;;;;;7.30;4.68;;;20.70;52.60;;;;;;6231364;28;84369;-62
2021/09/22 10:05:19;;;;;;;8.85;4.70;;;20.70;52.40;;;;;;6230259;28;82228;-63
2021/09/22 10:08:20;;;;;;;6.50;4.18;;;20.70;52.40;;;;;;6216682;28;81296;-62
2021/09/22 10:11:21;;;;;;;6.38;4.72;;;20.70;52.20;;;;;;6217430;28;81402;-62
2021/09/22 10:14:21;;;;;;;7.10;4.40;;;20.70;52.40;;;;;;6217364;28;80857;-62
2021/09/22 10:17:22;;;;;;;6.57;4.20;;;20.70;52.60;;;;;;6224743;28;80039;-61
2021/09/22 10:20:22;;;;;;;5.50;4.03;;;20.70;53.00;;;;;;6232565;28;81050;-63
2021/09/22 10:23:23;;;;;;;7.88;4.63;;;20.70;52.70;;;;;;6227208;27;80661;-62
2021/09/22 10:26:23;;;;;;;7.07;3.85;;;20.70;52.70;;;;;;6227759;28;80974;-62
2021/09/22 10:29:24;;;;;;;4.93;3.70;;;20.70;52.90;;;;;;6231430;28;80299;-62
2021/09/22 10:32:24;;;;;;;10.13;4.30;;;20.80;53.00;;;;;;6230438;28;80451;-61
2021/09/22 10:35:25;;;;;;;4.35;3.88;;;20.80;52.90;;;;;;6232358;28;80452;-60
2021/09/22 10:38:25;;;;;;;6.90;3.97;;;20.80;52.90;;;;;;6231414;28;82203;-61
2021/09/22 10:41:26;;;;;;;6.68;3.40;;;20.90;52.80;;;;;;6226382;28;80766;-60
2021/09/22 10:44:26;;;;;;;5.60;3.75;;;20.90;52.80;;;;;;6231703;28;81307;-61
2021/09/22 10:47:27;;;;;;;5.20;3.47;;;20.90;52.80;;;;;;6235878;27;80497;-61
2021/09/22 10:50:28;;;;;;;6.85;3.40;;;20.90;53.30;;;;;;6232153;28;80749;-61
2021/09/22 10:53:28;;;;;;;3.58;2.90;;;20.90;53.90;;;;;;6234444;27;80870;-61
2021/09/22 10:56:29;;;;;;;4.43;3.35;;;20.90;53.70;;;;;;6225855;27;80450;-61
2021/09/22 10:59:29;;;;;;;4.78;3.05;;;21.00;54.00;;;;;;6232553;27;80320;-61
2021/09/22 11:02:30;;;;;;;6.43;3.50;;;21.00;54.30;;;;;;6234838;27;80094;-61
2021/09/22 11:05:30;;;;;;;5.30;3.17;;;21.00;53.90;;;;;;6229788;27;80480;-61
2021/09/22 11:08:31;;;;;;;5.00;3.33;;;21.00;53.60;;;;;;6220045;27;80979;-62
2021/09/22 11:11:31;;;;;;;4.15;3.22;;;21.00;53.40;;;;;;6228643;28;82529;-62
2021/09/22 11:14:32;;;;;;;4.80;3.15;;;21.00;53.30;;;;;;6234943;27;80152;-61
2021/09/22 11:17:34;;;;;;;4.75;3.20;;;21.00;53.30;;;;;;6230542;27;80397;-61
2021/09/22 11:20:34;;;;;;;4.72;3.00;;;21.00;53.10;;;;;;6234360;27;80466;-61
2021/09/22 11:23:35;;;;;;;5.38;3.30;;;21.00;53.30;;;;;;6232836;28;81573;-61
2021/09/22 11:26:35;;;;;;;4.65;3.30;;;21.00;53.20;;;;;;6232058;27;80698;-61
2021/09/22 11:29:36;;;;;;;4.28;3.47;;;21.00;53.60;;;;;;6233912;27;80705;-60
2021/09/22 11:32:36;;;;;;;5.53;3.13;;;21.00;53.80;;;;;;6218765;27;80112;-60
2021/09/22 11:35:37;;;;;;;6.68;3.53;;;21.00;53.50;;;;;;6231389;27;80929;-60
2021/09/22 11:38:38;;;;;;;6.63;3.58;;;21.00;53.70;;;;;;6231204;28;80661;-60
2021/09/22 11:41:38;;;;;;;4.13;3.20;;;21.10;54.20;;;;;;6232935;27;80408;-60
2021/09/22 11:44:39;;;;;;;5.28;3.50;;;21.00;53.70;;;;;;6230230;27;80819;-60
2021/09/22 11:47:39;;;;;;;5.07;3.33;;;21.00;53.80;;;;;;6231127;28;80656;-60
2021/09/22 11:50:40;;;;;;;6.70;3.28;;;21.10;53.60;;;;;;6231975;28;81601;-60
2021/09/22 11:53:42;;;;;;;5.15;3.42;;;21.00;53.60;;;;;;6232953;27;80476;-60
2021/09/22 11:56:43;;;;;;;5.85;3.92;;;21.10;53.70;;;;;;6228302;27;80814;-60
2021/09/22 11:59:45;;;;;;;7.15;4.63;;;21.10;53.50;;;;;;6231145;28;79948;-60
2021/09/22 12:02:45;;;;;;;6.97;3.97;;;21.10;53.60;;;;;;6235573;28;80474;-60
2021/09/22 12:05:46;;;;;;;5.85;4.25;;;21.10;54.00;;;;;;6234495;28;82395;-61
2021/09/22 12:08:48;;;;;;;12.82;6.47;;;21.10;54.40;;;;;;6228281;27;80313;-60
2021/09/22 12:11:48;;;;;;;29.10;9.52;;;21.20;54.30;;;;;;6231695;28;87444;-60
2021/09/22 12:14:49;;;;;;;64.07;15.57;;;21.20;54.70;;;;;;6231767;27;80472;-60
2021/09/22 12:17:51;;;;;;;47.22;16.00;;;21.20;54.70;;;;;;6227854;27;82771;-60
2021/09/22 12:20:51;;;;;;;67.38;19.52;;;21.20;55.10;;;;;;6228968;27;83357;-60
2021/09/22 12:23:52;;;;;;;72.28;21.23;;;21.20;58.90;;;;;;6220564;27;83509;-62
2021/09/22 12:26:52;;;;;;;101.68;30.17;;;21.20;56.50;;;;;;6229027;27;83184;-61
2021/09/22 12:29:53;;;;;;;98.30;30.02;;;21.30;58.70;;;;;;6224907;27;83234;-60
2021/09/22 12:32:53;;;;;;;81.63;26.17;;;21.20;58.90;;;;;;6226537;28;84117;-62
2021/09/22 12:35:54;;;;;;;82.75;25.00;;;21.30;58.50;;;;;;6201016;27;82962;-63
2021/09/22 12:38:54;;;;;;;77.15;24.60;;;21.30;58.20;;;;;;6222647;28;83108;-61
2021/09/22 12:41:55;;;;;;;83.30;24.38;;;21.30;57.50;;;;;;6227474;28;82997;-61
2021/09/22 12:44:56;;;;;;;69.47;23.42;;;21.30;57.50;;;;;;6211738;28;85088;-62
2021/09/22 12:47:58;;;;;;;68.53;23.33;;;21.30;57.20;;;;;;6223735;27;83532;-62
2021/09/22 12:50:58;;;;;;;70.13;23.60;;;21.30;56.90;;;;;;6221046;27;84654;-61
2021/09/22 12:53:59;;;;;;;65.28;21.38;;;21.30;56.80;;;;;;6220570;27;83015;-61
2021/09/22 12:56:59;;;;;;;63.85;20.52;;;21.30;56.50;;;;;;6225549;27;83762;-63
2021/09/22 13:00:00;;;;;;;56.08;20.77;;;21.30;56.40;;;;;;6227751;27;83876;-63
2021/09/22 13:03:01;;;;;;;47.17;17.45;;;21.30;56.30;;;;;;6202176;27;83576;-61
2021/09/22 13:06:05;;;;;;;39.20;14.45;;;21.30;56.10;;;;;;6193569;28;82949;-62
2021/09/22 13:09:06;;;;;;;36.22;13.02;;;21.40;55.30;;;;;;6196340;28;83276;-61
2021/09/22 13:12:06;;;;;;;31.85;13.05;;;21.30;54.70;;;;;;6194786;28;82928;-62
2021/09/22 13:15:07;;;;;;;31.55;11.90;;;21.30;54.50;;;;;;6220015;28;84405;-61
2021/09/22 13:18:08;;;;;;;28.65;11.52;;;21.30;54.20;;;;;;6226527;28;83439;-62
2021/09/22 13:21:08;;;;;;;34.88;11.52;;;21.30;53.50;;;;;;6225879;27;83155;-62
2021/09/22 13:24:09;;;;;;;25.17;9.65;;;21.30;53.20;;;;;;6227362;27;83201;-62
2021/09/22 13:27:09;;;;;;;27.25;9.73;;;21.30;52.10;;;;;;6228666;28;83469;-62
2021/09/22 13:30:10;;;;;;;22.40;8.40;;;21.20;51.90;;;;;;6223177;27;80654;-61
2021/09/22 13:33:12;;;;;;;18.15;7.10;;;21.20;51.60;;;;;;6228137;28;81480;-62
2021/09/22 13:36:12;;;;;;;14.95;6.82;;;21.20;50.70;;;;;;6222197;27;80193;-61
2021/09/22 13:39:13;;;;;;;15.80;7.70;;;21.20;50.60;;;;;;6219816;28;80772;-61
2021/09/22 13:42:13;;;;;;;14.57;6.55;;;21.20;51.10;;;;;;6222027;28;80620;-64
2021/09/22 13:45:14;;;;;;;12.00;5.20;;;21.20;50.20;;;;;;6231771;28;81244;-62
2021/09/22 13:48:14;;;;;;;12.68;5.20;;;21.10;50.40;;;;;;6231082;27;80288;-62
2021/09/22 13:51:15;;;;;;;17.20;5.22;;;21.10;51.30;;;;;;6227549;28;80171;-62
2021/09/22 13:54:15;;;;;;;14.57;4.45;;;21.10;51.80;;;;;;6226817;28;81854;-62
2021/09/22 13:57:16;;;;;;;9.77;4.78;;;21.20;52.20;;;;;;6227519;27;81822;-62
2021/09/22 14:00:16;;;;;;;14.88;4.65;;;21.20;52.60;;;;;;6229162;27;81620;-62
2021/09/22 14:03:17;;;;;;;11.20;4.45;;;21.20;52.70;;;;;;6230463;27;81438;-61
2021/09/22 14:06:17;;;;;;;12.15;4.18;;;21.20;53.10;;;;;;6236053;28;81041;-62
2021/09/22 14:09:18;;;;;;;8.77;4.47;;;21.20;53.20;;;;;;6228032;27;80901;-63
2021/09/22 14:12:18;;;;;;;7.88;4.22;;;21.30;53.30;;;;;;6228956;28;88691;-62
2021/09/22 14:15:19;;;;;;;6.50;3.72;;;21.30;53.30;;;;;;6225264;28;84246;-64
2021/09/22 14:18:19;;;;;;;11.45;3.90;;;21.30;53.50;;;;;;6227170;27;80207;-63
2021/09/22 14:21:22;;;;;;;8.30;4.07;;;21.30;53.30;;;;;;6229460;27;80394;-63
2021/09/22 14:24:23;;;;;;;10.10;4.30;;;21.30;53.30;;;;;;6225793;28;80721;-62
2021/09/22 14:27:23;;;;;;;6.85;3.67;;;21.30;53.50;;;;;;6221336;27;80452;-62
2021/09/22 14:30:24;;;;;;;8.45;3.60;;;21.30;53.10;;;;;;6217991;28;80346;-61
2021/09/22 14:33:24;;;;;;;8.68;4.57;;;21.30;53.40;;;;;;6227808;27;80882;-62
2021/09/22 14:36:26;;;;;;;11.23;4.20;;;21.30;53.10;;;;;;6226891;28;81433;-61
2021/09/22 14:39:26;;;;;;;6.00;3.83;;;21.30;53.10;;;;;;6235474;27;81755;-63
2021/09/22 14:42:27;;;;;;;6.00;3.70;;;21.40;53.40;;;;;;6228506;28;83046;-62
2021/09/22 14:45:28;;;;;;;9.10;4.30;;;21.30;53.40;;;;;;6221642;27;82148;-63
2021/09/22 14:48:29;;;;;;;7.60;4.22;;;21.40;53.10;;;;;;6230173;27;81417;-63
2021/09/22 14:51:29;;;;;;;12.30;4.10;;;21.40;53.20;;;;;;6219853;27;81438;-62
2021/09/22 14:54:30;;;;;;;7.10;3.80;;;21.30;53.10;;;;;;6231326;27;80335;-63
2021/09/22 14:57:31;;;;;;;8.13;3.72;;;21.40;53.10;;;;;;6231697;28;81027;-63
2021/09/22 15:00:32;;;;;;;7.80;3.60;;;21.40;53.20;;;;;;6232401;27;81025;-64
2021/09/22 15:03:32;;;;;;;5.60;3.28;;;21.40;52.90;;;;;;6234841;27;80267;-63
2021/09/22 15:06:33;;;;;;;9.52;3.40;;;21.40;53.00;;;;;;6232130;27;80899;-63
2021/09/22 15:09:33;;;;;;;4.75;3.20;;;21.40;52.90;;;;;;6234529;27;80551;-62
2021/09/22 15:12:34;;;;;;;6.32;3.45;;;21.40;53.00;;;;;;6224432;27;81254;-62
2021/09/22 15:15:34;;;;;;;7.38;3.55;;;21.40;52.90;;;;;;6231856;27;80927;-62
2021/09/22 15:18:35;;;;;;;5.35;3.22;;;21.40;53.60;;;;;;6225940;28;80619;-62
2021/09/22 15:21:35;;;;;;;5.35;3.20;;;21.40;53.90;;;;;;6230958;28;80843;-62
2021/09/22 15:24:36;;;;;;;7.38;3.60;;;21.30;53.60;;;;;;6232940;27;80879;-62
2021/09/22 15:27:36;;;;;;;9.10;3.97;;;21.40;53.40;;;;;;6232727;27;80812;-62
2021/09/22 15:30:37;;;;;;;5.68;3.53;;;21.40;53.40;;;;;;6232725;27;81311;-62
2021/09/22 15:33:37;;;;;;;6.75;3.85;;;21.40;53.30;;;;;;6229842;28;81522;-62
2021/09/22 15:36:38;;;;;;;8.75;4.07;;;21.40;53.30;;;;;;6230598;28;82222;-63
2021/09/22 15:39:38;;;;;;;6.15;3.65;;;21.30;53.50;;;;;;6241251;28;81538;-62
2021/09/22 15:42:39;;;;;;;6.85;3.35;;;21.40;53.20;;;;;;6233097;27;80846;-61
2021/09/22 15:45:39;;;;;;;9.20;3.40;;;21.30;53.20;;;;;;6232147;28;80225;-61
2021/09/22 15:48:40;;;;;;;4.05;3.15;;;21.40;53.40;;;;;;6231951;27;80580;-61
2021/09/22 15:51:40;;;;;;;5.40;3.33;;;21.40;53.40;;;;;;6228824;28;80909;-60
2021/09/22 15:54:41;;;;;;;6.78;3.63;;;21.30;54.10;;;;;;6230681;27;81330;-62
2021/09/22 15:57:41;;;;;;;7.30;3.75;;;21.30;53.70;;;;;;6224375;27;80421;-62
2021/09/22 16:00:42;;;;;;;6.22;3.60;;;21.40;53.60;;;;;;6231101;27;80844;-63
2021/09/22 16:03:43;;;;;;;5.95;3.17;;;21.40;53.60;;;;;;6228690;27;80936;-61
2021/09/22 16:06:43;;;;;;;8.70;3.40;;;21.40;53.50;;;;;;6221791;28;80937;-61
2021/09/22 16:09:44;;;;;;;4.55;3.10;;;21.30;54.00;;;;;;6224700;27;85181;-63
2021/09/22 16:12:44;;;;;;;4.35;3.08;;;21.30;54.30;;;;;;6206540;28;80817;-60
2021/09/22 16:15:45;;;;;;;6.50;4.20;;;21.40;54.40;;;;;;6208758;28;81595;-60
2021/09/22 16:18:45;;;;;;;9.15;3.50;;;21.40;54.50;;;;;;6228154;28;81318;-61
2021/09/22 16:21:45;;;;;;;5.45;3.22;;;21.30;54.60;;;;;;6219304;27;80494;-61
2021/09/22 16:24:46;;;;;;;6.38;3.60;;;21.40;54.50;;;;;;6224364;27;80649;-60
2021/09/22 16:27:47;;;;;;;6.03;3.75;;;21.40;55.20;;;;;;6209317;28;80383;-61
2021/09/22 16:30:47;;;;;;;4.60;3.60;;;21.30;54.70;;;;;;6224219;28;81237;-61
2021/09/22 16:33:48;;;;;;;9.00;4.03;;;21.40;54.50;;;;;;6227867;27;81548;-59
2021/09/22 16:36:48;;;;;;;5.88;3.60;;;21.40;54.50;;;;;;6225866;28;80430;-62
2021/09/22 16:39:49;;;;;;;6.03;3.83;;;21.40;54.70;;;;;;6228164;27;80785;-61
2021/09/22 16:42:49;;;;;;;4.63;3.50;;;21.40;54.50;;;;;;6219149;27;80717;-62
2021/09/22 16:45:50;;;;;;;6.25;3.90;;;21.40;54.50;;;;;;6229410;27;80731;-62
2021/09/22 16:48:50;;;;;;;6.05;3.95;;;21.40;55.00;;;;;;6228287;27;80932;-62